Time;durP1;ratioP1;P1;durP2;ratioP2;P2;SDS_P1;SDS_P2;PMS_P1;PMS_P2;Temp;Humidity;BMP_temperature;BMP_pressure;BME280_temperature;BME280_humidity;BME280_pressure;Samples;Min_cycle;Max_cycle;Signal;HPM_P1;HPM_P2
2022/10/14 00:02:06;;;;;;;8.50;3.90;;;;;;;;;;5052419;28;20032;-76
2022/10/14 00:04:33;;;;;;;6.88;4.00;;;;;;;;;;5049229;28;20035;-77
2022/10/14 00:06:59;;;;;;;8.30;4.03;;;;;;;;;;5049752;28;20020;-78
2022/10/14 00:09:25;;;;;;;7.38;4.00;;;;;;;;;;5066889;28;21250;-77
2022/10/14 00:11:51;;;;;;;8.70;4.18;;;;;;;;;;5055907;28;20036;-78
2022/10/14 00:14:18;;;;;;;7.55;4.03;;;;;;;;;;5073827;28;20544;-78
2022/10/14 00:16:46;;;;;;;8.85;4.10;;;;;;;;;;5061521;28;20528;-78
2022/10/14 00:19:14;;;;;;;7.70;4.35;;;;;;;;;;5051449;28;20024;-77
2022/10/14 00:21:41;;;;;;;5.00;3.63;;;;;;;;;;5052988;28;20105;-77
2022/10/14 00:24:07;;;;;;;6.57;3.42;;;;;;;;;;5066684;28;20511;-76
2022/10/14 00:26:35;;;;;;;7.03;3.50;;;;;;;;;;5049086;28;20025;-78
2022/10/14 00:29:03;;;;;;;8.50;3.22;;;;;;;;;;5074883;28;20021;-78
2022/10/14 00:31:29;;;;;;;3.80;3.22;;;;;;;;;;5060022;28;20379;-77
2022/10/14 00:33:55;;;;;;;5.72;3.50;;;;;;;;;;5068505;28;20499;-77
2022/10/14 00:36:23;;;;;;;5.38;3.35;;;;;;;;;;5072274;28;20024;-78
2022/10/14 00:38:49;;;;;;;6.22;3.70;;;;;;;;;;5051260;28;20021;-78
2022/10/14 00:41:23;;;;;;;5.97;3.47;;;;;;;;;;5047785;28;20184;-78
2022/10/14 00:43:54;;;;;;;4.40;3.42;;;;;;;;;;5070454;28;20468;-78
2022/10/14 00:46:21;;;;;;;6.88;3.55;;;;;;;;;;5051743;28;20024;-78
2022/10/14 00:48:47;;;;;;;4.80;3.42;;;;;;;;;;5058538;28;20374;-77
2022/10/14 00:51:13;;;;;;;9.82;4.35;;;;;;;;;;5067776;28;20097;-77
2022/10/14 00:53:42;;;;;;;9.52;3.70;;;;;;;;;;5048759;28;20056;-78
2022/10/14 00:56:09;;;;;;;5.10;3.38;;;;;;;;;;5059862;28;20086;-78
2022/10/14 00:58:35;;;;;;;5.93;4.03;;;;;;;;;;5043671;28;20024;-77
2022/10/14 01:01:01;;;;;;;5.85;4.05;;;;;;;;;;5047321;28;20053;-78
2022/10/14 01:03:27;;;;;;;12.80;3.85;;;;;;;;;;5047764;28;20024;-77
2022/10/14 01:06:06;;;;;;;7.05;3.70;;;;;;;;;;5077298;28;20032;-77
2022/10/14 01:08:39;;;;;;;5.45;3.50;;;;;;;;;;5071319;28;20024;-77
2022/10/14 01:11:44;;;;;;;5.07;3.03;;;;;;;;;;5059654;28;20331;-77
2022/10/14 01:14:15;;;;;;;12.35;3.17;;;;;;;;;;5003177;28;20038;-77
2022/10/14 01:16:49;;;;;;;8.23;3.40;;;;;;;;;;4992913;28;20115;-77
2022/10/14 01:19:34;;;;;;;6.45;3.67;;;;;;;;;;5022310;28;20072;-78
2022/10/14 01:22:07;;;;;;;7.20;3.55;;;;;;;;;;5075738;28;20507;-78
2022/10/14 01:24:41;;;;;;;9.45;3.38;;;;;;;;;;5055087;28;20112;-77
2022/10/14 01:27:31;;;;;;;6.13;4.13;;;;;;;;;;5066446;28;20404;-78
2022/10/14 01:30:18;;;;;;;8.98;4.75;;;;;;;;;;5070915;28;20434;-78
2022/10/14 01:33:03;;;;;;;4.68;3.10;;;;;;;;;;5066218;28;20028;-78
2022/10/14 01:35:34;;;;;;;8.48;4.03;;;;;;;;;;5044657;28;20025;-77
2022/10/14 01:38:03;;;;;;;8.00;4.15;;;;;;;;;;5051993;28;20016;-77
2022/10/14 01:40:35;;;;;;;9.05;3.83;;;;;;;;;;5047389;28;20063;-78
2022/10/14 01:43:02;;;;;;;5.40;3.70;;;;;;;;;;5069634;28;20028;-79
2022/10/14 01:45:29;;;;;;;6.40;3.70;;;;;;;;;;5049096;28;20037;-78
2022/10/14 01:47:57;;;;;;;8.85;4.18;;;;;;;;;;5063928;28;20440;-77
2022/10/14 01:50:24;;;;;;;6.55;3.88;;;;;;;;;;5063938;28;20039;-78
2022/10/14 01:52:55;;;;;;;7.70;3.63;;;;;;;;;;5047172;28;20090;-77
2022/10/14 01:55:23;;;;;;;11.25;4.18;;;;;;;;;;5041246;28;20031;-78
2022/10/14 01:57:50;;;;;;;8.27;3.92;;;;;;;;;;5048869;28;20062;-78
2022/10/14 02:00:17;;;;;;;5.07;3.90;;;;;;;;;;5047377;28;20021;-77
2022/10/14 02:02:43;;;;;;;7.20;3.88;;;;;;;;;;5051605;28;20025;-78
2022/10/14 02:05:21;;;;;;;7.47;4.30;;;;;;;;;;5049140;28;20042;-78
2022/10/14 02:07:50;;;;;;;5.70;3.20;;;;;;;;;;5066797;28;20024;-77
2022/10/14 02:10:30;;;;;;;6.35;3.65;;;;;;;;;;5045629;28;20032;-77
2022/10/14 02:13:21;;;;;;;7.43;4.40;;;;;;;;;;5065591;28;20075;-77
2022/10/14 02:15:47;;;;;;;7.50;3.65;;;;;;;;;;5061419;28;20119;-78
2022/10/14 02:18:32;;;;;;;6.45;3.45;;;;;;;;;;5069903;28;20033;-77
2022/10/14 02:21:07;;;;;;;6.22;3.42;;;;;;;;;;5055697;28;20021;-78
2022/10/14 02:23:37;;;;;;;9.88;3.10;;;;;;;;;;5040968;28;20044;-78
2022/10/14 02:26:04;;;;;;;5.90;3.03;;;;;;;;;;5058591;28;20102;-78
2022/10/14 02:28:31;;;;;;;7.65;3.05;;;;;;;;;;5058177;28;20025;-78
2022/10/14 02:30:59;;;;;;;8.30;3.28;;;;;;;;;;5071886;28;20039;-77
2022/10/14 02:33:28;;;;;;;5.22;3.67;;;;;;;;;;5063074;28;20112;-78
2022/10/14 02:35:55;;;;;;;7.13;3.63;;;;;;;;;;5062071;28;20067;-78
2022/10/14 02:38:22;;;;;;;5.93;3.22;;;;;;;;;;5065085;28;20636;-78
2022/10/14 02:40:49;;;;;;;8.68;4.22;;;;;;;;;;5046314;28;20446;-78
2022/10/14 02:43:15;;;;;;;5.38;2.90;;;;;;;;;;5062579;28;20524;-77
2022/10/14 02:45:42;;;;;;;3.20;2.75;;;;;;;;;;5059404;28;20120;-78
2022/10/14 02:48:09;;;;;;;5.18;2.88;;;;;;;;;;5066410;28;20107;-78
2022/10/14 02:50:35;;;;;;;5.32;3.33;;;;;;;;;;5047021;28;20047;-78
2022/10/14 02:53:01;;;;;;;5.72;2.80;;;;;;;;;;5048093;28;20479;-78
2022/10/14 02:55:27;;;;;;;9.90;3.33;;;;;;;;;;5057083;28;20028;-78
2022/10/14 02:57:54;;;;;;;6.32;3.42;;;;;;;;;;5055952;28;20051;-78
2022/10/14 03:00:20;;;;;;;7.07;3.22;;;;;;;;;;5061534;28;20036;-77
2022/10/14 03:02:46;;;;;;;6.90;3.30;;;;;;;;;;5055455;28;20064;-77
2022/10/14 03:05:12;;;;;;;7.38;3.22;;;;;;;;;;5066031;28;20652;-78
2022/10/14 03:07:38;;;;;;;6.60;2.95;;;;;;;;;;5050091;28;20040;-78
2022/10/14 03:10:04;;;;;;;7.97;2.95;;;;;;;;;;5050096;28;20106;-78
2022/10/14 03:12:30;;;;;;;7.13;3.25;;;;;;;;;;5044205;28;20028;-78
2022/10/14 03:14:57;;;;;;;7.18;2.80;;;;;;;;;;5055996;28;20075;-77
2022/10/14 03:17:23;;;;;;;5.80;3.00;;;;;;;;;;5062352;28;20025;-77
2022/10/14 03:19:49;;;;;;;5.13;3.05;;;;;;;;;;5076370;28;20024;-79
2022/10/14 03:22:15;;;;;;;6.35;3.00;;;;;;;;;;5060957;28;20036;-77
2022/10/14 03:24:41;;;;;;;6.82;2.70;;;;;;;;;;5061195;28;20056;-77
2022/10/14 03:27:07;;;;;;;9.32;3.13;;;;;;;;;;5068078;28;20740;-77
2022/10/14 03:29:33;;;;;;;4.25;3.15;;;;;;;;;;5057512;28;20024;-77
2022/10/14 03:31:59;;;;;;;5.95;2.80;;;;;;;;;;5052360;28;20495;-77
2022/10/14 03:34:25;;;;;;;3.83;3.53;;;;;;;;;;5055482;28;20016;-78
2022/10/14 03:36:51;;;;;;;5.63;3.20;;;;;;;;;;5056566;28;20190;-78
2022/10/14 03:39:17;;;;;;;6.97;2.72;;;;;;;;;;5061304;28;20032;-77
2022/10/14 03:41:44;;;;;;;5.78;3.70;;;;;;;;;;5068299;28;20079;-78
2022/10/14 03:44:10;;;;;;;5.15;2.78;;;;;;;;;;5059665;28;20751;-77
2022/10/14 03:46:36;;;;;;;9.25;3.35;;;;;;;;;;5060617;28;20398;-77
2022/10/14 03:49:02;;;;;;;5.82;2.97;;;;;;;;;;5045820;28;20020;-77
2022/10/14 03:51:28;;;;;;;6.93;3.20;;;;;;;;;;5050890;28;20021;-78
2022/10/14 03:53:55;;;;;;;6.00;3.25;;;;;;;;;;5057455;28;20063;-78
2022/10/14 03:56:21;;;;;;;4.40;2.97;;;;;;;;;;5050798;28;20027;-77
2022/10/14 03:58:47;;;;;;;7.32;3.63;;;;;;;;;;5061433;28;20500;-78
2022/10/14 04:01:13;;;;;;;5.72;3.33;;;;;;;;;;5057605;28;20062;-77
2022/10/14 04:03:40;;;;;;;6.45;3.45;;;;;;;;;;5050824;28;20070;-77
2022/10/14 04:06:06;;;;;;;7.38;3.55;;;;;;;;;;5071173;28;20103;-77
2022/10/14 04:08:32;;;;;;;7.45;3.72;;;;;;;;;;5065856;28;20036;-77
2022/10/14 04:10:58;;;;;;;7.47;4.07;;;;;;;;;;5068082;28;20017;-78
2022/10/14 04:13:24;;;;;;;6.10;3.40;;;;;;;;;;5059308;28;20025;-78
2022/10/14 04:15:51;;;;;;;7.00;3.78;;;;;;;;;;5049017;28;20438;-78
2022/10/14 04:18:17;;;;;;;7.07;3.47;;;;;;;;;;5064178;28;20067;-77
2022/10/14 04:20:43;;;;;;;4.70;3.28;;;;;;;;;;5067433;28;20032;-78
2022/10/14 04:23:09;;;;;;;7.38;4.55;;;;;;;;;;5051829;28;20031;-77
2022/10/14 04:25:37;;;;;;;6.63;3.80;;;;;;;;;;5066218;28;20107;-78
2022/10/14 04:28:03;;;;;;;7.53;3.35;;;;;;;;;;5052208;28;20028;-77
2022/10/14 04:30:29;;;;;;;6.95;3.15;;;;;;;;;;5070117;28;20028;-78
2022/10/14 04:32:56;;;;;;;5.40;3.30;;;;;;;;;;5054903;28;20032;-77
2022/10/14 04:35:22;;;;;;;4.00;3.25;;;;;;;;;;5059940;28;20473;-77
2022/10/14 04:37:48;;;;;;;7.10;3.92;;;;;;;;;;5065714;28;20021;-78
2022/10/14 04:40:14;;;;;;;8.00;2.90;;;;;;;;;;5050481;28;20082;-77
2022/10/14 04:42:40;;;;;;;10.63;3.40;;;;;;;;;;5043738;28;20598;-77
2022/10/14 04:45:06;;;;;;;7.57;3.65;;;;;;;;;;5046495;28;20028;-77
2022/10/14 04:47:32;;;;;;;7.63;3.95;;;;;;;;;;5055677;28;20029;-77
2022/10/14 04:49:59;;;;;;;4.78;3.08;;;;;;;;;;5065473;28;20457;-77
2022/10/14 04:52:25;;;;;;;4.93;2.90;;;;;;;;;;5047327;28;20373;-77
2022/10/14 04:54:51;;;;;;;8.40;4.05;;;;;;;;;;5047125;28;20457;-77
2022/10/14 04:57:17;;;;;;;4.35;2.88;;;;;;;;;;5047307;28;20021;-77
2022/10/14 04:59:43;;;;;;;6.30;3.38;;;;;;;;;;5051671;28;20055;-77
2022/10/14 05:02:09;;;;;;;8.48;2.75;;;;;;;;;;5068600;28;20670;-77
2022/10/14 05:04:35;;;;;;;6.75;3.17;;;;;;;;;;5048163;28;20370;-77
2022/10/14 05:07:01;;;;;;;8.05;2.97;;;;;;;;;;5046969;28;20163;-77
2022/10/14 05:09:28;;;;;;;8.30;3.38;;;;;;;;;;5068590;28;20032;-77
2022/10/14 05:11:54;;;;;;;6.03;3.25;;;;;;;;;;5051929;28;20366;-77
2022/10/14 05:14:20;;;;;;;8.05;2.80;;;;;;;;;;5065036;28;20036;-78
2022/10/14 05:16:46;;;;;;;7.32;3.00;;;;;;;;;;5063158;28;20033;-78
2022/10/14 05:19:12;;;;;;;4.75;3.15;;;;;;;;;;5049164;28;20500;-77
2022/10/14 05:21:38;;;;;;;5.25;3.33;;;;;;;;;;5065168;28;20099;-77
2022/10/14 05:24:04;;;;;;;6.28;3.08;;;;;;;;;;5044363;28;20049;-77
2022/10/14 05:26:30;;;;;;;9.65;2.90;;;;;;;;;;5040644;28;20048;-77
2022/10/14 05:28:56;;;;;;;4.45;2.50;;;;;;;;;;5053334;28;20021;-77
2022/10/14 05:31:22;;;;;;;6.80;2.90;;;;;;;;;;5038531;28;20018;-77
2022/10/14 05:33:48;;;;;;;6.28;2.60;;;;;;;;;;5047366;28;20424;-77
2022/10/14 05:36:15;;;;;;;4.07;2.50;;;;;;;;;;5038238;28;20021;-77
2022/10/14 05:38:41;;;;;;;6.85;2.80;;;;;;;;;;5048075;28;20561;-78
2022/10/14 05:41:07;;;;;;;4.07;2.75;;;;;;;;;;5049676;28;20147;-77
2022/10/14 05:43:33;;;;;;;3.55;2.05;;;;;;;;;;5045743;28;20680;-78
2022/10/14 05:45:59;;;;;;;6.35;2.75;;;;;;;;;;5044165;28;20060;-77
2022/10/14 05:48:25;;;;;;;2.83;2.28;;;;;;;;;;5034131;28;20025;-77
2022/10/14 05:50:51;;;;;;;7.53;2.58;;;;;;;;;;5056949;28;20029;-77
2022/10/14 05:53:17;;;;;;;6.03;2.42;;;;;;;;;;5043385;28;20026;-77
2022/10/14 05:55:44;;;;;;;6.68;2.97;;;;;;;;;;5035033;28;20052;-77
2022/10/14 05:58:10;;;;;;;7.75;2.67;;;;;;;;;;5046909;28;20116;-78
2022/10/14 06:00:36;;;;;;;8.82;2.95;;;;;;;;;;5040142;28;20029;-76
2022/10/14 06:03:02;;;;;;;5.25;2.60;;;;;;;;;;5046067;28;20029;-78
2022/10/14 06:05:28;;;;;;;4.95;2.60;;;;;;;;;;5035354;28;20067;-77
2022/10/14 06:07:54;;;;;;;9.95;3.55;;;;;;;;;;5037267;28;20025;-78
2022/10/14 06:10:20;;;;;;;5.05;2.42;;;;;;;;;;5049679;28;20037;-78
2022/10/14 06:12:46;;;;;;;4.38;2.30;;;;;;;;;;5044238;28;20037;-77
2022/10/14 06:15:12;;;;;;;7.00;2.72;;;;;;;;;;5044184;28;20025;-77
2022/10/14 06:17:38;;;;;;;2.58;2.30;;;;;;;;;;5041948;28;20056;-76
2022/10/14 06:20:05;;;;;;;5.43;2.70;;;;;;;;;;5040461;28;20024;-77
2022/10/14 06:22:31;;;;;;;6.05;2.63;;;;;;;;;;5038789;28;20052;-78
2022/10/14 06:24:57;;;;;;;5.60;2.92;;;;;;;;;;5057037;28;20136;-77
2022/10/14 06:27:23;;;;;;;4.40;2.50;;;;;;;;;;5031885;28;20426;-78
2022/10/14 06:29:49;;;;;;;7.18;2.92;;;;;;;;;;5054916;28;20025;-78
2022/10/14 06:32:15;;;;;;;8.63;3.13;;;;;;;;;;5049901;28;20053;-77
2022/10/14 06:34:41;;;;;;;8.25;2.67;;;;;;;;;;5062745;28;20745;-77
2022/10/14 06:37:07;;;;;;;6.55;2.97;;;;;;;;;;5073330;28;20025;-77
2022/10/14 06:39:33;;;;;;;6.22;2.70;;;;;;;;;;5068559;28;20032;-77
2022/10/14 06:42:01;;;;;;;6.10;3.30;;;;;;;;;;5066635;28;20032;-78
2022/10/14 06:44:27;;;;;;;8.38;2.85;;;;;;;;;;5048864;28;20040;-77
2022/10/14 06:46:54;;;;;;;6.53;2.70;;;;;;;;;;5057476;28;20032;-77
2022/10/14 06:49:20;;;;;;;5.85;2.75;;;;;;;;;;5066933;28;20028;-77
2022/10/14 06:51:46;;;;;;;6.50;2.90;;;;;;;;;;5054578;28;20308;-76
2022/10/14 06:54:12;;;;;;;4.45;2.72;;;;;;;;;;5050820;28;20025;-78
2022/10/14 06:56:38;;;;;;;4.60;3.05;;;;;;;;;;5046802;28;20021;-77
2022/10/14 06:59:04;;;;;;;3.92;2.40;;;;;;;;;;5055171;28;20078;-76
2022/10/14 07:01:30;;;;;;;5.35;2.67;;;;;;;;;;5067678;28;20449;-77
2022/10/14 07:03:56;;;;;;;5.82;2.90;;;;;;;;;;5065118;28;20032;-77
2022/10/14 07:06:23;;;;;;;8.38;2.70;;;;;;;;;;5060492;28;20480;-78
2022/10/14 07:08:49;;;;;;;10.15;3.28;;;;;;;;;;5065817;28;20077;-77
2022/10/14 07:11:15;;;;;;;8.25;2.85;;;;;;;;;;5062622;28;20040;-77
2022/10/14 07:13:41;;;;;;;8.93;2.80;;;;;;;;;;5057554;28;20065;-77
2022/10/14 07:16:07;;;;;;;7.38;3.05;;;;;;;;;;5046321;28;20025;-77
2022/10/14 07:18:33;;;;;;;9.93;2.88;;;;;;;;;;5062464;28;20032;-77
2022/10/14 07:21:06;;;;;;;11.40;3.50;;;;;;;;;;5067761;28;20107;-77
2022/10/14 07:23:32;;;;;;;7.45;2.72;;;;;;;;;;5050691;28;20501;-77
2022/10/14 07:25:59;;;;;;;4.13;2.35;;;;;;;;;;5041748;28;20383;-77
2022/10/14 07:28:25;;;;;;;6.85;2.92;;;;;;;;;;5042143;28;20032;-76
2022/10/14 07:31:02;;;;;;;3.70;2.53;;;;;;;;;;5042172;28;20059;-77
2022/10/14 07:33:28;;;;;;;5.32;2.75;;;;;;;;;;5052685;28;20120;-77
2022/10/14 07:35:54;;;;;;;5.45;2.80;;;;;;;;;;5050350;28;20381;-77
2022/10/14 07:38:20;;;;;;;4.32;2.65;;;;;;;;;;5041342;28;20099;-77
2022/10/14 07:40:55;;;;;;;4.25;2.63;;;;;;;;;;5035227;28;20036;-78
2022/10/14 07:43:21;;;;;;;5.97;2.50;;;;;;;;;;5037157;28;20493;-77
2022/10/14 07:45:49;;;;;;;3.72;2.47;;;;;;;;;;5052301;28;20060;-77
2022/10/14 07:48:15;;;;;;;7.95;2.70;;;;;;;;;;5041749;28;20116;-77
2022/10/14 07:50:43;;;;;;;6.38;3.00;;;;;;;;;;5042186;28;20106;-77
2022/10/14 07:53:09;;;;;;;6.32;2.53;;;;;;;;;;5046897;28;20393;-78
2022/10/14 07:55:35;;;;;;;5.20;2.50;;;;;;;;;;5032168;28;20032;-78
2022/10/14 07:58:01;;;;;;;5.28;2.80;;;;;;;;;;5034779;28;20026;-77
2022/10/14 08:00:27;;;;;;;4.88;2.45;;;;;;;;;;5045325;28;20029;-77
2022/10/14 08:02:53;;;;;;;7.95;2.83;;;;;;;;;;5041001;28;20082;-77
2022/10/14 08:05:19;;;;;;;4.90;2.10;;;;;;;;;;5046393;28;20025;-77
2022/10/14 08:07:45;;;;;;;5.85;2.22;;;;;;;;;;5040729;28;20033;-78
2022/10/14 08:10:12;;;;;;;8.63;2.40;;;;;;;;;;5050592;28;20461;-77
2022/10/14 08:12:38;;;;;;;8.73;2.58;;;;;;;;;;5053797;28;20074;-76
2022/10/14 08:15:04;;;;;;;4.80;2.85;;;;;;;;;;5045583;28;20108;-77
2022/10/14 08:17:30;;;;;;;4.05;2.20;;;;;;;;;;5052725;28;20020;-76
2022/10/14 08:19:58;;;;;;;4.22;2.20;;;;;;;;;;5047711;28;20030;-77
2022/10/14 08:22:24;;;;;;;8.65;2.85;;;;;;;;;;5048519;28;20079;-77
2022/10/14 08:24:50;;;;;;;5.97;2.60;;;;;;;;;;5064051;28;20044;-77
2022/10/14 08:27:18;;;;;;;5.55;2.42;;;;;;;;;;5051564;28;20051;-77
2022/10/14 08:29:44;;;;;;;7.10;2.40;;;;;;;;;;5068452;28;20074;-76
2022/10/14 08:32:10;;;;;;;4.50;2.55;;;;;;;;;;5059771;28;20032;-77
2022/10/14 08:34:36;;;;;;;3.00;2.40;;;;;;;;;;5064730;28;20054;-77
2022/10/14 08:37:02;;;;;;;6.35;2.40;;;;;;;;;;5065033;28;20114;-77
2022/10/14 08:39:28;;;;;;;8.43;2.75;;;;;;;;;;5047804;28;20021;-77
2022/10/14 08:42:05;;;;;;;6.35;2.78;;;;;;;;;;5063831;28;20685;-76
2022/10/14 08:44:41;;;;;;;8.73;3.65;;;;;;;;;;5064884;28;20033;-77
2022/10/14 08:47:11;;;;;;;5.57;2.83;;;;;;;;;;5066448;28;20111;-77
2022/10/14 08:49:56;;;;;;;6.45;2.40;;;;;;;;;;5063985;28;20025;-77
2022/10/14 08:52:26;;;;;;;4.10;2.53;;;;;;;;;;5047392;28;20048;-77
2022/10/14 08:54:58;;;;;;;5.28;2.65;;;;;;;;;;5046060;28;20504;-79
2022/10/14 08:57:27;;;;;;;7.13;2.50;;;;;;;;;;5065264;28;20103;-77
2022/10/14 08:59:53;;;;;;;7.03;2.47;;;;;;;;;;5047369;28;20025;-78
2022/10/14 09:02:29;;;;;;;9.00;3.05;;;;;;;;;;5067086;28;20480;-76
2022/10/14 09:04:57;;;;;;;6.28;2.90;;;;;;;;;;5062149;28;20031;-77
2022/10/14 09:07:23;;;;;;;5.70;2.47;;;;;;;;;;5067922;28;20039;-77
2022/10/14 09:09:52;;;;;;;4.43;2.65;;;;;;;;;;5066326;28;20028;-77
2022/10/14 09:12:25;;;;;;;7.20;3.45;;;;;;;;;;5064552;28;20097;-77
2022/10/14 09:15:03;;;;;;;5.70;2.63;;;;;;;;;;5068205;28;20055;-79
2022/10/14 09:17:39;;;;;;;6.05;2.40;;;;;;;;;;5049238;28;20366;-77
2022/10/14 09:20:17;;;;;;;4.28;2.67;;;;;;;;;;5061056;28;20029;-77
2022/10/14 09:22:45;;;;;;;8.13;3.78;;;;;;;;;;5065331;28;20054;-78
2022/10/14 09:25:15;;;;;;;3.72;2.22;;;;;;;;;;5047587;28;20497;-77
2022/10/14 09:27:41;;;;;;;5.25;2.40;;;;;;;;;;5063290;28;20032;-77
2022/10/14 09:30:14;;;;;;;7.05;4.35;;;;;;;;;;5047980;28;20545;-77
2022/10/14 09:32:59;;;;;;;9.90;3.17;;;;;;;;;;5048864;28;20024;-77
2022/10/14 09:35:29;;;;;;;8.33;2.70;;;;;;;;;;5067437;28;20442;-77
2022/10/14 09:37:55;;;;;;;5.50;2.45;;;;;;;;;;5048662;28;20032;-78
2022/10/14 09:40:32;;;;;;;4.53;2.40;;;;;;;;;;5069674;28;20028;-78
2022/10/14 09:43:04;;;;;;;8.15;2.75;;;;;;;;;;5066225;28;20017;-78
2022/10/14 09:45:45;;;;;;;8.60;2.70;;;;;;;;;;5068569;28;20488;-76
2022/10/14 09:48:14;;;;;;;4.68;2.30;;;;;;;;;;5066495;28;20158;-76
2022/10/14 09:50:42;;;;;;;6.32;2.00;;;;;;;;;;5065511;28;20074;-78
2022/10/14 09:53:16;;;;;;;5.47;2.30;;;;;;;;;;5069972;28;20416;-78
2022/10/14 09:55:47;;;;;;;7.85;2.70;;;;;;;;;;5072779;28;20031;-78
2022/10/14 09:58:15;;;;;;;6.07;2.45;;;;;;;;;;5064873;28;20024;-79
2022/10/14 10:00:42;;;;;;;5.18;1.98;;;;;;;;;;5046922;28;20019;-78
2022/10/14 10:03:23;;;;;;;5.93;2.28;;;;;;;;;;5065189;28;20025;-79
2022/10/14 10:05:58;;;;;;;4.57;2.63;;;;;;;;;;5065380;28;20028;-80
2022/10/14 10:08:25;;;;;;;5.82;2.00;;;;;;;;;;5066128;28;20108;-80
2022/10/14 10:11:06;;;;;;;4.05;1.90;;;;;;;;;;5064949;28;20037;-79
2022/10/14 10:13:34;;;;;;;3.97;2.05;;;;;;;;;;5066114;28;20028;-79
2022/10/14 10:16:02;;;;;;;4.72;2.03;;;;;;;;;;5050917;28;20059;-81
2022/10/14 10:18:28;;;;;;;6.32;1.83;;;;;;;;;;5083439;28;20589;-83
2022/10/14 10:21:05;;;;;;;4.57;2.22;;;;;;;;;;5066797;28;20028;-78
2022/10/14 10:23:33;;;;;;;4.32;2.35;;;;;;;;;;5068898;28;20116;-78
2022/10/14 10:26:16;;;;;;;3.25;2.25;;;;;;;;;;5066967;28;20027;-77
2022/10/14 10:28:47;;;;;;;6.13;2.10;;;;;;;;;;5063386;28;20028;-83
2022/10/14 10:31:25;;;;;;;5.32;2.22;;;;;;;;;;5070719;28;20028;-78
2022/10/14 10:34:00;;;;;;;5.22;2.45;;;;;;;;;;5067464;28;20051;-77
2022/10/14 10:36:31;;;;;;;4.75;2.30;;;;;;;;;;5064383;28;20074;-78
2022/10/14 10:38:58;;;;;;;4.97;2.30;;;;;;;;;;5066072;28;20032;-78
2022/10/14 10:41:31;;;;;;;5.22;1.83;;;;;;;;;;5066823;28;20091;-78
2022/10/14 10:44:02;;;;;;;3.78;1.80;;;;;;;;;;5063118;28;20029;-78
2022/10/14 10:46:36;;;;;;;7.28;2.65;;;;;;;;;;5049477;28;20032;-78
2022/10/14 10:49:02;;;;;;;7.28;3.33;;;;;;;;;;5063656;28;20024;-77
2022/10/14 10:51:52;;;;;;;4.97;2.13;;;;;;;;;;5065442;28;20784;-76
2022/10/14 10:54:30;;;;;;;4.85;2.15;;;;;;;;;;5042357;28;20100;-78
2022/10/14 10:57:01;;;;;;;5.75;2.85;;;;;;;;;;5067700;28;20025;-79
2022/10/14 10:59:37;;;;;;;5.28;2.42;;;;;;;;;;5049586;28;20043;-79
2022/10/14 11:02:22;;;;;;;9.68;2.20;;;;;;;;;;5053652;28;20028;-78
2022/10/14 11:04:48;;;;;;;6.82;2.30;;;;;;;;;;5067244;28;20493;-77
2022/10/14 11:13:34;;;;;;;4.57;2.20;;;;;;;;;;5060593;28;20090;-79
2022/10/14 11:16:03;;;;;;;9.07;2.85;;;;;;;;;;5068459;28;20020;-79
2022/10/14 11:18:35;;;;;;;7.93;3.15;;;;;;;;;;5048303;28;20028;-78
2022/10/14 11:21:02;;;;;;;7.05;2.30;;;;;;;;;;5069578;28;20465;-79
2022/10/14 11:23:34;;;;;;;7.38;2.63;;;;;;;;;;5061721;28;20540;-79
2022/10/14 11:26:14;;;;;;;8.50;2.30;;;;;;;;;;5066577;28;20048;-79
2022/10/14 11:28:40;;;;;;;8.68;2.55;;;;;;;;;;5047610;28;20102;-79
2022/10/14 11:31:12;;;;;;;8.55;2.40;;;;;;;;;;5052666;28;20513;-79
2022/10/14 11:33:57;;;;;;;3.83;2.38;;;;;;;;;;5065692;28;20032;-79
2022/10/14 11:36:30;;;;;;;4.97;1.75;;;;;;;;;;5069098;28;20020;-80
2022/10/14 11:39:10;;;;;;;4.85;1.90;;;;;;;;;;5062838;28;20040;-77
2022/10/14 11:41:49;;;;;;;6.53;1.88;;;;;;;;;;5063699;28;20079;-79
2022/10/14 11:44:27;;;;;;;5.18;2.25;;;;;;;;;;5050374;28;20034;-80
2022/10/14 11:46:55;;;;;;;3.92;2.00;;;;;;;;;;5050565;28;20028;-79
2022/10/14 11:49:27;;;;;;;3.97;2.30;;;;;;;;;;5070005;28;20024;-78
2022/10/14 11:52:01;;;;;;;7.68;2.75;;;;;;;;;;5058703;28;20155;-78
2022/10/14 11:54:33;;;;;;;5.75;1.90;;;;;;;;;;5065322;28;20048;-79
2022/10/14 11:57:02;;;;;;;8.65;3.05;;;;;;;;;;5064112;28;20083;-78
2022/10/14 11:59:47;;;;;;;7.38;2.30;;;;;;;;;;5043646;28;20654;-78
2022/10/14 12:02:18;;;;;;;6.57;2.78;;;;;;;;;;5067433;28;20033;-78
2022/10/14 12:04:46;;;;;;;8.05;4.40;;;;;;;;;;5062709;28;20051;-77
2022/10/14 12:07:16;;;;;;;7.70;2.40;;;;;;;;;;5050730;28;20033;-77
2022/10/14 12:09:54;;;;;;;5.28;2.42;;;;;;;;;;5052273;28;20096;-77
2022/10/14 12:12:22;;;;;;;8.77;2.22;;;;;;;;;;5062134;28;20025;-78
2022/10/14 12:14:56;;;;;;;8.73;3.15;;;;;;;;;;5066984;28;20425;-78
2022/10/14 12:17:22;;;;;;;6.35;2.50;;;;;;;;;;5033499;28;20373;-77
2022/10/14 12:19:50;;;;;;;8.52;2.70;;;;;;;;;;5071203;28;20079;-77
2022/10/14 12:22:35;;;;;;;5.95;2.10;;;;;;;;;;5066319;28;20029;-77
2022/10/14 12:25:03;;;;;;;5.85;2.53;;;;;;;;;;5064238;28;20135;-78
2022/10/14 12:27:30;;;;;;;7.45;2.53;;;;;;;;;;5066423;28;20021;-78
2022/10/14 12:29:57;;;;;;;5.88;2.13;;;;;;;;;;5065397;28;20033;-77
2022/10/14 12:32:28;;;;;;;8.68;3.45;;;;;;;;;;5067642;28;20678;-79
2022/10/14 12:34:56;;;;;;;4.70;2.42;;;;;;;;;;5050396;28;20021;-77
2022/10/14 12:37:33;;;;;;;5.90;3.17;;;;;;;;;;5031453;28;20021;-78
2022/10/14 12:40:02;;;;;;;6.00;3.13;;;;;;;;;;5066175;28;20080;-78
2022/10/14 12:42:29;;;;;;;8.85;2.60;;;;;;;;;;5065324;28;20029;-77
2022/10/14 12:44:57;;;;;;;6.68;1.85;;;;;;;;;;5067398;28;20035;-77
2022/10/14 12:47:25;;;;;;;6.20;3.13;;;;;;;;;;5067578;28;20111;-76
2022/10/14 12:49:53;;;;;;;4.78;2.22;;;;;;;;;;5051329;28;20024;-77
2022/10/14 12:52:25;;;;;;;6.72;2.80;;;;;;;;;;5064490;28;20025;-78
2022/10/14 12:54:51;;;;;;;3.72;3.13;;;;;;;;;;5050722;28;20059;-78
2022/10/14 12:57:25;;;;;;;6.07;2.70;;;;;;;;;;5066255;28;20190;-77
2022/10/14 12:59:52;;;;;;;12.02;3.08;;;;;;;;;;5064381;28;20166;-77
2022/10/14 13:02:20;;;;;;;6.32;2.47;;;;;;;;;;5067462;28;20562;-77
2022/10/14 13:04:48;;;;;;;4.55;2.17;;;;;;;;;;5046408;28;20024;-78
2022/10/14 13:07:17;;;;;;;9.73;3.58;;;;;;;;;;5070235;28;20031;-77
2022/10/14 13:09:47;;;;;;;6.50;2.67;;;;;;;;;;5068276;28;21189;-77
2022/10/14 13:12:34;;;;;;;5.20;2.55;;;;;;;;;;5066296;28;20505;-78
2022/10/14 13:15:03;;;;;;;6.93;2.58;;;;;;;;;;5039081;28;20492;-79
2022/10/14 13:17:49;;;;;;;3.78;2.20;;;;;;;;;;5054526;28;20028;-79
2022/10/14 13:20:34;;;;;;;5.90;2.78;;;;;;;;;;5066130;28;20028;-77
2022/10/14 13:23:18;;;;;;;7.40;2.15;;;;;;;;;;5062244;28;20024;-77
2022/10/14 13:25:44;;;;;;;;;;;;;;;;;;5060852;28;20021;-76
2022/10/14 13:28:31;;;;;;;5.85;2.40;;;;;;;;;;5067105;28;19913;-77
2022/10/14 13:31:07;;;;;;;5.65;2.08;;;;;;;;;;5044743;28;20021;-76
2022/10/14 13:33:39;;;;;;;5.03;2.53;;;;;;;;;;5055440;28;20470;-77
2022/10/14 13:36:05;;;;;;;4.70;2.25;;;;;;;;;;5063668;28;20032;-77
2022/10/14 13:38:31;;;;;;;4.35;2.00;;;;;;;;;;5060811;28;20052;-78
2022/10/14 13:40:58;;;;;;;5.78;2.20;;;;;;;;;;5050323;28;20020;-77
2022/10/14 13:43:41;;;;;;;3.95;1.95;;;;;;;;;;5065672;28;20032;-78
2022/10/14 13:46:16;;;;;;;4.57;2.30;;;;;;;;;;5064796;28;20119;-77
2022/10/14 13:48:47;;;;;;;7.07;2.58;;;;;;;;;;5063607;28;20044;-77
2022/10/14 13:51:16;;;;;;;5.53;2.70;;;;;;;;;;5067462;28;20103;-76
2022/10/14 13:53:52;;;;;;;4.75;2.60;;;;;;;;;;5067941;28;20024;-77
2022/10/14 13:56:21;;;;;;;5.25;2.42;;;;;;;;;;5068825;28;20569;-77
2022/10/14 13:58:47;;;;;;;3.70;2.28;;;;;;;;;;5070600;28;20111;-77
2022/10/14 14:01:13;;;;;;;4.00;2.00;;;;;;;;;;5049650;28;20020;-77
2022/10/14 14:03:43;;;;;;;2.80;1.83;;;;;;;;;;5071189;28;20031;-78
2022/10/14 14:06:14;;;;;;;4.93;2.60;;;;;;;;;;5048777;28;20032;-77
2022/10/14 14:08:49;;;;;;;4.63;2.42;;;;;;;;;;5067248;28;20070;-77
2022/10/14 14:11:17;;;;;;;4.75;2.90;;;;;;;;;;5049039;28;20024;-77
2022/10/14 14:13:47;;;;;;;5.13;2.50;;;;;;;;;;5052402;28;20029;-78
2022/10/14 14:16:41;;;;;;;5.88;2.90;;;;;;;;;;5066636;28;20025;-77
2022/10/14 14:19:17;;;;;;;3.20;1.98;;;;;;;;;;5067216;28;20045;-78
2022/10/14 14:21:43;;;;;;;5.22;2.78;;;;;;;;;;5065456;28;20025;-77
2022/10/14 14:24:20;;;;;;;4.82;2.22;;;;;;;;;;5060729;28;20072;-77
2022/10/14 14:26:46;;;;;;;5.60;2.60;;;;;;;;;;5068072;28;20101;-77
2022/10/14 14:29:24;;;;;;;7.45;3.85;;;;;;;;;;5053182;28;20525;-77
2022/10/14 14:31:50;;;;;;;6.50;3.35;;;;;;;;;;5050314;28;20029;-77
2022/10/14 14:34:17;;;;;;;6.25;2.70;;;;;;;;;;5049621;28;20024;-77
2022/10/14 14:36:44;;;;;;;8.32;3.00;;;;;;;;;;5051894;28;20429;-77
2022/10/14 14:39:27;;;;;;;5.93;2.58;;;;;;;;;;5047092;28;20020;-76
2022/10/14 14:41:54;;;;;;;6.90;3.05;;;;;;;;;;5067471;28;20020;-77
2022/10/14 14:44:22;;;;;;;10.43;2.97;;;;;;;;;;5049698;28;20574;-77
2022/10/14 14:46:49;;;;;;;3.88;2.42;;;;;;;;;;5048045;28;20086;-77
2022/10/14 14:49:16;;;;;;;7.28;3.47;;;;;;;;;;5066216;28;20036;-77
2022/10/14 14:51:43;;;;;;;9.82;3.35;;;;;;;;;;5065335;28;20112;-76
2022/10/14 14:54:16;;;;;;;10.30;3.50;;;;;;;;;;5047044;28;20046;-78
2022/10/14 14:56:47;;;;;;;7.15;3.10;;;;;;;;;;5064994;28;20040;-77
2022/10/14 14:59:20;;;;;;;7.05;4.05;;;;;;;;;;5046578;28;20056;-76
2022/10/14 15:01:46;;;;;;;7.78;2.53;;;;;;;;;;5062835;28;20025;-77
2022/10/14 15:04:17;;;;;;;6.82;2.40;;;;;;;;;;5060757;28;20056;-76